sensor_id;sensor_type;location;lat;lon;timestamp;temperature;humidity
37050;DHT22;22958;51.232;6.826;2023-02-12T00:01:17;8.10;99.90
37050;DHT22;22958;51.232;6.826;2023-02-12T00:03:43;8.10;99.90
37050;DHT22;22958;51.232;6.826;2023-02-12T00:06:09;8.10;99.90
37050;DHT22;22958;51.232;6.826;2023-02-12T00:08:36;8.10;99.90
37050;DHT22;22958;51.232;6.826;2023-02-12T00:11:16;8.20;99.90
37050;DHT22;22958;51.232;6.826;2023-02-12T00:13:43;8.20;99.90
37050;DHT22;22958;51.232;6.826;2023-02-12T00:16:11;8.20;99.90
37050;DHT22;22958;51.232;6.826;2023-02-12T00:18:37;8.20;99.90
37050;DHT22;22958;51.232;6.826;2023-02-12T00:21:03;8.20;99.90
37050;DHT22;22958;51.232;6.826;2023-02-12T00:23:29;8.10;99.90
37050;DHT22;22958;51.232;6.826;2023-02-12T00:25:55;8.10;99.90
37050;DHT22;22958;51.232;6.826;2023-02-12T00:28:20;8.10;99.90
37050;DHT22;22958;51.232;6.826;2023-02-12T00:30:46;8.10;99.90
37050;DHT22;22958;51.232;6.826;2023-02-12T00:33:12;8.10;99.90
37050;DHT22;22958;51.232;6.826;2023-02-12T00:35:37;8.10;99.90
37050;DHT22;22958;51.232;6.826;2023-02-12T00:38:03;8.00;99.90
37050;DHT22;22958;51.232;6.826;2023-02-12T00:40:29;8.10;99.90
37050;DHT22;22958;51.232;6.826;2023-02-12T00:42:54;8.10;99.90
37050;DHT22;22958;51.232;6.826;2023-02-12T00:45:20;8.20;99.90
37050;DHT22;22958;51.232;6.826;2023-02-12T00:47:45;8.10;99.90
37050;DHT22;22958;51.232;6.826;2023-02-12T00:50:11;8.10;99.90
37050;DHT22;22958;51.232;6.826;2023-02-12T00:52:36;8.00;99.90
37050;DHT22;22958;51.232;6.826;2023-02-12T00:55:02;8.00;99.90
37050;DHT22;22958;51.232;6.826;2023-02-12T00:57:28;8.00;99.90
37050;DHT22;22958;51.232;6.826;2023-02-12T00:59:53;8.00;99.90
37050;DHT22;22958;51.232;6.826;2023-02-12T01:02:19;8.00;99.90
37050;DHT22;22958;51.232;6.826;2023-02-12T01:04:44;8.00;99.90
37050;DHT22;22958;51.232;6.826;2023-02-12T01:07:10;8.00;99.90
37050;DHT22;22958;51.232;6.826;2023-02-12T01:09:35;7.90;99.90
37050;DHT22;22958;51.232;6.826;2023-02-12T01:12:02;8.00;99.90
37050;DHT22;22958;51.232;6.826;2023-02-12T01:14:27;7.90;99.90
37050;DHT22;22958;51.232;6.826;2023-02-12T01:16:53;7.90;99.90
37050;DHT22;22958;51.232;6.826;2023-02-12T01:19:18;7.90;99.90
37050;DHT22;22958;51.232;6.826;2023-02-12T01:21:44;7.80;99.90
37050;DHT22;22958;51.232;6.826;2023-02-12T01:24:09;7.90;99.90
37050;DHT22;22958;51.232;6.826;2023-02-12T01:26:35;7.80;99.90
37050;DHT22;22958;51.232;6.826;2023-02-12T01:29:04;7.80;99.90
37050;DHT22;22958;51.232;6.826;2023-02-12T01:31:32;7.80;99.90
37050;DHT22;22958;51.232;6.826;2023-02-12T01:33:59;7.80;99.90
37050;DHT22;22958;51.232;6.826;2023-02-12T01:36:26;7.80;99.90
37050;DHT22;22958;51.232;6.826;2023-02-12T01:38:52;7.80;99.90
37050;DHT22;22958;51.232;6.826;2023-02-12T01:41:21;7.70;99.90
37050;DHT22;22958;51.232;6.826;2023-02-12T01:46:32;7.80;99.90
37050;DHT22;22958;51.232;6.826;2023-02-12T01:48:57;7.80;99.90
37050;DHT22;22958;51.232;6.826;2023-02-12T01:51:24;7.80;99.90
37050;DHT22;22958;51.232;6.826;2023-02-12T01:53:53;7.70;99.90
37050;DHT22;22958;51.232;6.826;2023-02-12T01:56:21;7.70;99.90
37050;DHT22;22958;51.232;6.826;2023-02-12T01:58:50;7.60;99.90
37050;DHT22;22958;51.232;6.826;2023-02-12T02:01:20;7.60;99.90
37050;DHT22;22958;51.232;6.826;2023-02-12T02:03:50;7.60;99.90
37050;DHT22;22958;51.232;6.826;2023-02-12T02:06:24;7.60;99.90
37050;DHT22;22958;51.232;6.826;2023-02-12T02:08:52;7.60;99.90
37050;DHT22;22958;51.232;6.826;2023-02-12T02:11:17;7.60;99.90
37050;DHT22;22958;51.232;6.826;2023-02-12T02:14:01;7.60;99.90
37050;DHT22;22958;51.232;6.826;2023-02-12T02:17:07;7.50;99.90
37050;DHT22;22958;51.232;6.826;2023-02-12T02:25:35;7.50;99.90
37050;DHT22;22958;51.232;6.826;2023-02-12T02:28:19;7.60;99.90
37050;DHT22;22958;51.232;6.826;2023-02-12T02:31:02;7.50;99.90
37050;DHT22;22958;51.232;6.826;2023-02-12T02:33:50;7.50;99.90
37050;DHT22;22958;51.232;6.826;2023-02-12T02:36:26;7.50;99.90
37050;DHT22;22958;51.232;6.826;2023-02-12T02:39:05;7.60;99.90
37050;DHT22;22958;51.232;6.826;2023-02-12T02:41:41;7.60;99.90
37050;DHT22;22958;51.232;6.826;2023-02-12T02:44:22;7.50;99.90
37050;DHT22;22958;51.232;6.826;2023-02-12T02:46:51;7.50;99.90
37050;DHT22;22958;51.232;6.826;2023-02-12T02:49:27;7.40;99.90
37050;DHT22;22958;51.232;6.826;2023-02-12T02:52:00;7.40;99.90
37050;DHT22;22958;51.232;6.826;2023-02-12T02:56:59;7.40;99.90
37050;DHT22;22958;51.232;6.826;2023-02-12T02:59:28;7.50;99.90
37050;DHT22;22958;51.232;6.826;2023-02-12T03:02:01;7.40;99.90
37050;DHT22;22958;51.232;6.826;2023-02-12T03:04:32;7.40;99.90
37050;DHT22;22958;51.232;6.826;2023-02-12T03:07:08;7.40;99.90
37050;DHT22;22958;51.232;6.826;2023-02-12T03:09:38;7.40;99.90
37050;DHT22;22958;51.232;6.826;2023-02-12T03:12:11;7.40;99.90
37050;DHT22;22958;51.232;6.826;2023-02-12T03:14:43;7.40;99.90
37050;DHT22;22958;51.232;6.826;2023-02-12T03:17:19;7.40;99.90
37050;DHT22;22958;51.232;6.826;2023-02-12T03:19:54;7.40;99.90
37050;DHT22;22958;51.232;6.826;2023-02-12T03:22:27;7.40;99.90
37050;DHT22;22958;51.232;6.826;2023-02-12T03:24:57;7.40;99.90
37050;DHT22;22958;51.232;6.826;2023-02-12T03:29:50;7.40;99.90
37050;DHT22;22958;51.232;6.826;2023-02-12T03:35:17;7.40;99.90
37050;DHT22;22958;51.232;6.826;2023-02-12T03:46:10;7.40;99.90
37050;DHT22;22958;51.232;6.826;2023-02-12T03:49:09;7.40;99.90
37050;DHT22;22958;51.232;6.826;2023-02-12T03:51:39;7.40;99.90
37050;DHT22;22958;51.232;6.826;2023-02-12T03:54:08;7.40;99.90
37050;DHT22;22958;51.232;6.826;2023-02-12T03:56:43;7.30;99.90
37050;DHT22;22958;51.232;6.826;2023-02-12T03:59:12;7.30;99.90
37050;DHT22;22958;51.232;6.826;2023-02-12T04:01:37;7.20;99.90
37050;DHT22;22958;51.232;6.826;2023-02-12T04:04:06;7.20;99.90
37050;DHT22;22958;51.232;6.826;2023-02-12T04:06:32;7.20;99.90
37050;DHT22;22958;51.232;6.826;2023-02-12T04:09:02;7.20;99.90
37050;DHT22;22958;51.232;6.826;2023-02-12T04:22:49;7.20;99.90
37050;DHT22;22958;51.232;6.826;2023-02-12T04:28:12;7.20;99.90
37050;DHT22;22958;51.232;6.826;2023-02-12T04:30:54;7.20;99.90
37050;DHT22;22958;51.232;6.826;2023-02-12T04:33:22;7.20;99.90
37050;DHT22;22958;51.232;6.826;2023-02-12T04:36:05;7.30;99.90
37050;DHT22;22958;51.232;6.826;2023-02-12T04:38:37;7.20;99.90
37050;DHT22;22958;51.232;6.826;2023-02-12T04:41:06;7.20;99.90
37050;DHT22;22958;51.232;6.826;2023-02-12T04:43:33;7.20;99.90
37050;DHT22;22958;51.232;6.826;2023-02-12T04:46:01;7.30;99.90
37050;DHT22;22958;51.232;6.826;2023-02-12T04:48:26;7.30;99.90
37050;DHT22;22958;51.232;6.826;2023-02-12T04:50:52;7.30;99.90
37050;DHT22;22958;51.232;6.826;2023-02-12T04:53:18;7.30;99.90
37050;DHT22;22958;51.232;6.826;2023-02-12T04:55:44;7.30;99.90
37050;DHT22;22958;51.232;6.826;2023-02-12T04:58:09;7.20;99.90
37050;DHT22;22958;51.232;6.826;2023-02-12T05:00:35;7.20;99.90
37050;DHT22;22958;51.232;6.826;2023-02-12T05:03:01;7.20;99.90
37050;DHT22;22958;51.232;6.826;2023-02-12T05:05:26;7.20;99.90
37050;DHT22;22958;51.232;6.826;2023-02-12T05:07:52;7.30;99.90
37050;DHT22;22958;51.232;6.826;2023-02-12T05:10:18;7.30;99.90
37050;DHT22;22958;51.232;6.826;2023-02-12T05:12:43;7.30;99.90
37050;DHT22;22958;51.232;6.826;2023-02-12T05:15:09;7.30;99.90
37050;DHT22;22958;51.232;6.826;2023-02-12T05:17:35;7.30;99.90
37050;DHT22;22958;51.232;6.826;2023-02-12T05:20:00;7.30;99.90
37050;DHT22;22958;51.232;6.826;2023-02-12T05:22:26;7.20;99.90
37050;DHT22;22958;51.232;6.826;2023-02-12T05:24:51;7.30;99.90
37050;DHT22;22958;51.232;6.826;2023-02-12T05:27:17;7.30;99.90
37050;DHT22;22958;51.232;6.826;2023-02-12T05:29:43;7.30;99.90
37050;DHT22;22958;51.232;6.826;2023-02-12T05:32:08;7.30;99.90
37050;DHT22;22958;51.232;6.826;2023-02-12T05:34:34;7.30;99.90
37050;DHT22;22958;51.232;6.826;2023-02-12T05:37:00;7.30;99.90
37050;DHT22;22958;51.232;6.826;2023-02-12T05:39:25;7.30;99.90
37050;DHT22;22958;51.232;6.826;2023-02-12T05:41:51;7.30;99.90
37050;DHT22;22958;51.232;6.826;2023-02-12T05:44:16;7.30;99.90
37050;DHT22;22958;51.232;6.826;2023-02-12T05:46:42;7.30;99.90
37050;DHT22;22958;51.232;6.826;2023-02-12T05:49:09;7.20;99.90
37050;DHT22;22958;51.232;6.826;2023-02-12T05:51:34;7.30;99.90
37050;DHT22;22958;51.232;6.826;2023-02-12T05:54:02;7.30;99.90
37050;DHT22;22958;51.232;6.826;2023-02-12T05:56:30;7.30;99.90
37050;DHT22;22958;51.232;6.826;2023-02-12T05:58:58;7.30;99.90
37050;DHT22;22958;51.232;6.826;2023-02-12T06:01:31;7.30;99.90
37050;DHT22;22958;51.232;6.826;2023-02-12T06:03:58;7.40;99.90
37050;DHT22;22958;51.232;6.826;2023-02-12T06:06:25;7.50;99.90
37050;DHT22;22958;51.232;6.826;2023-02-12T06:08:52;7.40;99.90
37050;DHT22;22958;51.232;6.826;2023-02-12T06:11:17;7.40;99.90
37050;DHT22;22958;51.232;6.826;2023-02-12T06:13:44;7.30;99.90
37050;DHT22;22958;51.232;6.826;2023-02-12T06:16:18;7.40;99.90
37050;DHT22;22958;51.232;6.826;2023-02-12T06:18:44;7.40;99.90
37050;DHT22;22958;51.232;6.826;2023-02-12T06:21:09;7.30;99.90
37050;DHT22;22958;51.232;6.826;2023-02-12T06:23:35;7.30;99.90
37050;DHT22;22958;51.232;6.826;2023-02-12T06:26:00;7.40;99.90
37050;DHT22;22958;51.232;6.826;2023-02-12T06:28:26;7.40;99.90
37050;DHT22;22958;51.232;6.826;2023-02-12T06:30:51;7.30;99.90
37050;DHT22;22958;51.232;6.826;2023-02-12T06:33:17;7.30;99.90
37050;DHT22;22958;51.232;6.826;2023-02-12T06:35:42;7.30;99.90
37050;DHT22;22958;51.232;6.826;2023-02-12T06:38:08;7.40;99.90
37050;DHT22;22958;51.232;6.826;2023-02-12T06:40:34;7.30;99.90
37050;DHT22;22958;51.232;6.826;2023-02-12T06:42:59;7.30;99.90
37050;DHT22;22958;51.232;6.826;2023-02-12T06:45:25;7.40;99.90
37050;DHT22;22958;51.232;6.826;2023-02-12T06:47:51;7.40;99.90
37050;DHT22;22958;51.232;6.826;2023-02-12T06:50:16;7.40;99.90
37050;DHT22;22958;51.232;6.826;2023-02-12T06:52:42;7.40;99.90
37050;DHT22;22958;51.232;6.826;2023-02-12T06:55:08;7.40;99.90
37050;DHT22;22958;51.232;6.826;2023-02-12T06:57:34;7.30;99.90
37050;DHT22;22958;51.232;6.826;2023-02-12T06:59:59;7.30;99.90
37050;DHT22;22958;51.232;6.826;2023-02-12T07:02:25;7.40;99.90
37050;DHT22;22958;51.232;6.826;2023-02-12T07:04:51;7.40;99.90
37050;DHT22;22958;51.232;6.826;2023-02-12T07:07:16;7.40;99.90
37050;DHT22;22958;51.232;6.826;2023-02-12T07:09:42;7.40;99.90
37050;DHT22;22958;51.232;6.826;2023-02-12T07:12:07;7.30;99.90
37050;DHT22;22958;51.232;6.826;2023-02-12T07:14:33;7.30;99.90
37050;DHT22;22958;51.232;6.826;2023-02-12T07:16:58;7.30;99.90
37050;DHT22;22958;51.232;6.826;2023-02-12T07:19:28;7.30;99.90
37050;DHT22;22958;51.232;6.826;2023-02-12T07:21:54;7.30;99.90
37050;DHT22;22958;51.232;6.826;2023-02-12T07:24:19;7.30;99.90
37050;DHT22;22958;51.232;6.826;2023-02-12T07:26:45;7.40;99.90
37050;DHT22;22958;51.232;6.826;2023-02-12T07:29:11;7.40;99.90
37050;DHT22;22958;51.232;6.826;2023-02-12T07:31:37;7.40;99.90
37050;DHT22;22958;51.232;6.826;2023-02-12T07:34:03;7.50;99.90
37050;DHT22;22958;51.232;6.826;2023-02-12T07:36:30;7.50;99.90
37050;DHT22;22958;51.232;6.826;2023-02-12T07:38:57;7.50;99.90
37050;DHT22;22958;51.232;6.826;2023-02-12T07:41:25;7.60;99.90
37050;DHT22;22958;51.232;6.826;2023-02-12T07:44:10;7.70;99.90
37050;DHT22;22958;51.232;6.826;2023-02-12T07:46:40;7.70;99.90
37050;DHT22;22958;51.232;6.826;2023-02-12T07:49:06;7.70;99.90
37050;DHT22;22958;51.232;6.826;2023-02-12T07:51:35;7.70;99.90
37050;DHT22;22958;51.232;6.826;2023-02-12T07:54:01;7.70;99.90
37050;DHT22;22958;51.232;6.826;2023-02-12T07:56:30;7.70;99.90
37050;DHT22;22958;51.232;6.826;2023-02-12T07:59:01;7.80;99.90
37050;DHT22;22958;51.232;6.826;2023-02-12T08:01:38;7.90;99.90
37050;DHT22;22958;51.232;6.826;2023-02-12T08:04:05;7.80;99.90
37050;DHT22;22958;51.232;6.826;2023-02-12T08:06:34;7.90;99.90
37050;DHT22;22958;51.232;6.826;2023-02-12T08:09:02;7.90;99.90
37050;DHT22;22958;51.232;6.826;2023-02-12T08:11:28;7.90;99.90
37050;DHT22;22958;51.232;6.826;2023-02-12T08:13:55;7.90;99.90
37050;DHT22;22958;51.232;6.826;2023-02-12T08:16:22;7.90;99.90
37050;DHT22;22958;51.232;6.826;2023-02-12T08:18:48;8.00;99.90
37050;DHT22;22958;51.232;6.826;2023-02-12T08:21:19;8.00;99.90
37050;DHT22;22958;51.232;6.826;2023-02-12T08:23:46;8.10;99.90
37050;DHT22;22958;51.232;6.826;2023-02-12T08:28:49;8.20;99.90
37050;DHT22;22958;51.232;6.826;2023-02-12T08:31:18;8.20;99.90
37050;DHT22;22958;51.232;6.826;2023-02-12T08:33:45;8.30;99.90
37050;DHT22;22958;51.232;6.826;2023-02-12T08:36:13;8.30;99.90
37050;DHT22;22958;51.232;6.826;2023-02-12T08:38:40;8.50;99.90
37050;DHT22;22958;51.232;6.826;2023-02-12T08:41:11;8.50;99.90
37050;DHT22;22958;51.232;6.826;2023-02-12T08:43:40;8.60;99.90
37050;DHT22;22958;51.232;6.826;2023-02-12T08:46:08;8.70;99.90
37050;DHT22;22958;51.232;6.826;2023-02-12T08:48:35;8.80;99.90
37050;DHT22;22958;51.232;6.826;2023-02-12T08:51:16;8.70;99.90
37050;DHT22;22958;51.232;6.826;2023-02-12T08:53:44;8.70;99.90
37050;DHT22;22958;51.232;6.826;2023-02-12T08:56:11;8.80;99.90
37050;DHT22;22958;51.232;6.826;2023-02-12T08:58:37;8.80;99.90
37050;DHT22;22958;51.232;6.826;2023-02-12T09:01:04;8.80;99.90
37050;DHT22;22958;51.232;6.826;2023-02-12T09:03:33;8.90;99.90
37050;DHT22;22958;51.232;6.826;2023-02-12T09:06:01;8.90;99.90
37050;DHT22;22958;51.232;6.826;2023-02-12T09:08:27;9.00;99.90
37050;DHT22;22958;51.232;6.826;2023-02-12T09:10:53;8.90;99.90
37050;DHT22;22958;51.232;6.826;2023-02-12T09:13:18;8.80;99.90
37050;DHT22;22958;51.232;6.826;2023-02-12T09:15:44;8.80;99.90
37050;DHT22;22958;51.232;6.826;2023-02-12T09:18:11;8.80;99.90
37050;DHT22;22958;51.232;6.826;2023-02-12T09:20:39;8.90;99.90
37050;DHT22;22958;51.232;6.826;2023-02-12T09:23:12;8.90;99.90
37050;DHT22;22958;51.232;6.826;2023-02-12T09:25:43;9.00;99.90
37050;DHT22;22958;51.232;6.826;2023-02-12T09:28:10;9.20;99.90
37050;DHT22;22958;51.232;6.826;2023-02-12T09:30:36;9.20;99.90
37050;DHT22;22958;51.232;6.826;2023-02-12T09:33:04;9.30;99.90
37050;DHT22;22958;51.232;6.826;2023-02-12T09:35:33;9.30;99.90
37050;DHT22;22958;51.232;6.826;2023-02-12T09:38:00;9.50;99.90
37050;DHT22;22958;51.232;6.826;2023-02-12T09:43:43;9.80;99.90
37050;DHT22;22958;51.232;6.826;2023-02-12T09:46:29;9.90;99.90
37050;DHT22;22958;51.232;6.826;2023-02-12T09:49:11;10.00;99.90
37050;DHT22;22958;51.232;6.826;2023-02-12T09:51:40;10.00;99.90
37050;DHT22;22958;51.232;6.826;2023-02-12T09:54:20;10.10;99.90
37050;DHT22;22958;51.232;6.826;2023-02-12T09:56:50;10.20;99.90
37050;DHT22;22958;51.232;6.826;2023-02-12T09:59:37;10.30;99.90
37050;DHT22;22958;51.232;6.826;2023-02-12T10:02:12;10.30;99.90
37050;DHT22;22958;51.232;6.826;2023-02-12T10:04:38;10.50;99.90
37050;DHT22;22958;51.232;6.826;2023-02-12T10:12:44;10.80;99.90
37050;DHT22;22958;51.232;6.826;2023-02-12T10:15:16;10.70;99.90
37050;DHT22;22958;51.232;6.826;2023-02-12T10:17:47;10.50;99.90
37050;DHT22;22958;51.232;6.826;2023-02-12T10:23:24;10.70;99.90
37050;DHT22;22958;51.232;6.826;2023-02-12T10:25:54;10.70;99.90
37050;DHT22;22958;51.232;6.826;2023-02-12T10:28:25;10.40;99.90
37050;DHT22;22958;51.232;6.826;2023-02-12T10:31:01;10.50;99.90
37050;DHT22;22958;51.232;6.826;2023-02-12T10:33:38;10.40;99.90
37050;DHT22;22958;51.232;6.826;2023-02-12T10:36:17;10.30;99.90
37050;DHT22;22958;51.232;6.826;2023-02-12T10:38:50;10.30;99.90
37050;DHT22;22958;51.232;6.826;2023-02-12T10:41:16;10.50;99.90
37050;DHT22;22958;51.232;6.826;2023-02-12T10:43:42;10.50;99.90
37050;DHT22;22958;51.232;6.826;2023-02-12T10:46:14;10.40;99.90
37050;DHT22;22958;51.232;6.826;2023-02-12T10:48:42;10.60;99.90
37050;DHT22;22958;51.232;6.826;2023-02-12T10:53:39;11.00;99.90
37050;DHT22;22958;51.232;6.826;2023-02-12T10:56:14;11.00;99.90
37050;DHT22;22958;51.232;6.826;2023-02-12T11:01:32;11.00;99.90
37050;DHT22;22958;51.232;6.826;2023-02-12T11:04:18;11.30;99.90
37050;DHT22;22958;51.232;6.826;2023-02-12T11:07:03;11.40;99.90
37050;DHT22;22958;51.232;6.826;2023-02-12T11:09:34;11.60;99.90
37050;DHT22;22958;51.232;6.826;2023-02-12T11:12:01;11.70;99.90
37050;DHT22;22958;51.232;6.826;2023-02-12T11:14:27;11.70;99.90
37050;DHT22;22958;51.232;6.826;2023-02-12T11:17:02;11.50;99.90
37050;DHT22;22958;51.232;6.826;2023-02-12T11:19:30;11.20;99.90
37050;DHT22;22958;51.232;6.826;2023-02-12T11:22:08;11.20;99.90
37050;DHT22;22958;51.232;6.826;2023-02-12T11:24:36;11.10;99.90
37050;DHT22;22958;51.232;6.826;2023-02-12T11:29:44;11.00;99.90
37050;DHT22;22958;51.232;6.826;2023-02-12T11:32:19;11.20;99.90
37050;DHT22;22958;51.232;6.826;2023-02-12T11:35:04;11.30;99.90
37050;DHT22;22958;51.232;6.826;2023-02-12T11:37:32;11.30;99.90
37050;DHT22;22958;51.232;6.826;2023-02-12T11:39:57;11.20;99.90
37050;DHT22;22958;51.232;6.826;2023-02-12T11:42:24;11.30;99.90
37050;DHT22;22958;51.232;6.826;2023-02-12T11:44:53;11.30;99.90
37050;DHT22;22958;51.232;6.826;2023-02-12T11:47:28;11.20;99.90
37050;DHT22;22958;51.232;6.826;2023-02-12T11:50:17;11.10;99.90
37050;DHT22;22958;51.232;6.826;2023-02-12T11:52:49;11.10;99.90
37050;DHT22;22958;51.232;6.826;2023-02-12T11:55:24;11.20;99.90
37050;DHT22;22958;51.232;6.826;2023-02-12T11:57:54;11.40;99.90
37050;DHT22;22958;51.232;6.826;2023-02-12T12:00:32;11.20;99.90
37050;DHT22;22958;51.232;6.826;2023-02-12T12:12:01;11.10;99.90
37050;DHT22;22958;51.232;6.826;2023-02-12T12:14:35;10.90;99.90
37050;DHT22;22958;51.232;6.826;2023-02-12T12:17:36;11.10;99.90
37050;DHT22;22958;51.232;6.826;2023-02-12T12:20:25;11.20;99.90
37050;DHT22;22958;51.232;6.826;2023-02-12T12:23:20;11.20;99.90
37050;DHT22;22958;51.232;6.826;2023-02-12T12:25:54;11.40;99.90
37050;DHT22;22958;51.232;6.826;2023-02-12T12:31:19;11.50;99.90
37050;DHT22;22958;51.232;6.826;2023-02-12T12:34:16;11.60;99.90
37050;DHT22;22958;51.232;6.826;2023-02-12T12:37:09;11.80;99.90
37050;DHT22;22958;51.232;6.826;2023-02-12T12:42:51;11.50;99.90
37050;DHT22;22958;51.232;6.826;2023-02-12T12:48:47;11.30;99.90
37050;DHT22;22958;51.232;6.826;2023-02-12T12:54:50;11.00;99.90
37050;DHT22;22958;51.232;6.826;2023-02-12T13:05:40;11.70;99.90
37050;DHT22;22958;51.232;6.826;2023-02-12T13:10:59;11.70;99.90
37050;DHT22;22958;51.232;6.826;2023-02-12T13:13:36;11.20;99.90
37050;DHT22;22958;51.232;6.826;2023-02-12T13:16:22;11.10;99.90
37050;DHT22;22958;51.232;6.826;2023-02-12T13:19:06;11.30;99.90
37050;DHT22;22958;51.232;6.826;2023-02-12T13:21:37;11.50;99.90
37050;DHT22;22958;51.232;6.826;2023-02-12T13:26:58;11.80;99.90
37050;DHT22;22958;51.232;6.826;2023-02-12T13:29:33;11.70;99.90
37050;DHT22;22958;51.232;6.826;2023-02-12T13:32:03;11.70;99.90
37050;DHT22;22958;51.232;6.826;2023-02-12T13:34:31;11.80;99.90
37050;DHT22;22958;51.232;6.826;2023-02-12T13:37:03;11.80;99.90
37050;DHT22;22958;51.232;6.826;2023-02-12T13:39:36;11.80;99.90
37050;DHT22;22958;51.232;6.826;2023-02-12T13:48:23;11.90;99.90
37050;DHT22;22958;51.232;6.826;2023-02-12T13:50:49;11.90;99.90
37050;DHT22;22958;51.232;6.826;2023-02-12T13:53:45;12.00;99.90
37050;DHT22;22958;51.232;6.826;2023-02-12T13:56:46;12.10;99.90
37050;DHT22;22958;51.232;6.826;2023-02-12T14:05:20;12.00;99.90
37050;DHT22;22958;51.232;6.826;2023-02-12T14:07:53;11.80;99.90
37050;DHT22;22958;51.232;6.826;2023-02-12T14:10:30;11.70;99.90
37050;DHT22;22958;51.232;6.826;2023-02-12T14:13:08;11.60;99.90
37050;DHT22;22958;51.232;6.826;2023-02-12T14:15:37;11.70;99.90
37050;DHT22;22958;51.232;6.826;2023-02-12T14:20:39;11.70;99.90
37050;DHT22;22958;51.232;6.826;2023-02-12T14:23:26;11.80;99.90
37050;DHT22;22958;51.232;6.826;2023-02-12T14:26:12;11.70;99.90
37050;DHT22;22958;51.232;6.826;2023-02-12T14:28:49;11.70;99.90
37050;DHT22;22958;51.232;6.826;2023-02-12T14:31:21;11.70;99.90
37050;DHT22;22958;51.232;6.826;2023-02-12T14:41:43;11.50;99.90
37050;DHT22;22958;51.232;6.826;2023-02-12T14:46:58;11.40;99.90
37050;DHT22;22958;51.232;6.826;2023-02-12T14:49:37;11.30;99.90
37050;DHT22;22958;51.232;6.826;2023-02-12T14:54:55;11.30;99.90
37050;DHT22;22958;51.232;6.826;2023-02-12T14:57:36;11.20;99.90
37050;DHT22;22958;51.232;6.826;2023-02-12T15:02:39;11.00;99.90
37050;DHT22;22958;51.232;6.826;2023-02-12T15:05:25;11.00;99.90
37050;DHT22;22958;51.232;6.826;2023-02-12T15:07:56;11.00;99.90
37050;DHT22;22958;51.232;6.826;2023-02-12T15:10:28;11.00;99.90
37050;DHT22;22958;51.232;6.826;2023-02-12T15:13:18;11.00;99.90
37050;DHT22;22958;51.232;6.826;2023-02-12T15:15:52;11.00;99.90
37050;DHT22;22958;51.232;6.826;2023-02-12T15:18:29;10.90;99.90
37050;DHT22;22958;51.232;6.826;2023-02-12T15:21:23;10.90;99.90
37050;DHT22;22958;51.232;6.826;2023-02-12T15:24:11;11.00;99.90
37050;DHT22;22958;51.232;6.826;2023-02-12T15:26:41;11.00;99.90
37050;DHT22;22958;51.232;6.826;2023-02-12T15:29:23;11.00;99.90
37050;DHT22;22958;51.232;6.826;2023-02-12T15:31:54;11.00;99.90
37050;DHT22;22958;51.232;6.826;2023-02-12T15:34:24;10.90;99.90
37050;DHT22;22958;51.232;6.826;2023-02-12T15:36:50;10.90;99.90
37050;DHT22;22958;51.232;6.826;2023-02-12T15:39:21;10.90;99.90
37050;DHT22;22958;51.232;6.826;2023-02-12T15:41:48;10.90;99.90
37050;DHT22;22958;51.232;6.826;2023-02-12T15:49:33;10.90;99.90
37050;DHT22;22958;51.232;6.826;2023-02-12T15:52:02;10.90;99.90
37050;DHT22;22958;51.232;6.826;2023-02-12T15:54:28;10.80;99.90
37050;DHT22;22958;51.232;6.826;2023-02-12T15:56:54;10.80;99.90
37050;DHT22;22958;51.232;6.826;2023-02-12T15:59:23;10.70;99.90
37050;DHT22;22958;51.232;6.826;2023-02-12T16:01:55;10.60;99.90
37050;DHT22;22958;51.232;6.826;2023-02-12T16:04:21;10.60;99.90
37050;DHT22;22958;51.232;6.826;2023-02-12T16:06:47;10.60;99.90
37050;DHT22;22958;51.232;6.826;2023-02-12T16:09:22;10.50;99.90
37050;DHT22;22958;51.232;6.826;2023-02-12T16:11:52;10.50;99.90
37050;DHT22;22958;51.232;6.826;2023-02-12T16:14:27;10.50;99.90
37050;DHT22;22958;51.232;6.826;2023-02-12T16:16:57;10.40;99.90
37050;DHT22;22958;51.232;6.826;2023-02-12T16:19:30;10.40;99.90
37050;DHT22;22958;51.232;6.826;2023-02-12T16:24:34;10.30;99.90
37050;DHT22;22958;51.232;6.826;2023-02-12T16:27:08;10.30;99.90
37050;DHT22;22958;51.232;6.826;2023-02-12T16:29:47;10.30;99.90
37050;DHT22;22958;51.232;6.826;2023-02-12T16:35:29;10.30;99.90
37050;DHT22;22958;51.232;6.826;2023-02-12T16:38:37;10.30;99.90
37050;DHT22;22958;51.232;6.826;2023-02-12T16:41:20;10.30;99.90
37050;DHT22;22958;51.232;6.826;2023-02-12T16:46:24;10.30;99.90
37050;DHT22;22958;51.232;6.826;2023-02-12T16:48:52;10.30;99.90
37050;DHT22;22958;51.232;6.826;2023-02-12T16:51:24;10.20;99.90
37050;DHT22;22958;51.232;6.826;2023-02-12T16:53:52;10.20;99.90
37050;DHT22;22958;51.232;6.826;2023-02-12T16:56:20;10.10;99.90
37050;DHT22;22958;51.232;6.826;2023-02-12T16:58:51;10.10;99.90
37050;DHT22;22958;51.232;6.826;2023-02-12T17:01:26;10.10;99.90
37050;DHT22;22958;51.232;6.826;2023-02-12T17:03:53;10.10;99.90
37050;DHT22;22958;51.232;6.826;2023-02-12T17:06:21;10.10;99.90
37050;DHT22;22958;51.232;6.826;2023-02-12T17:08:47;10.10;99.90
37050;DHT22;22958;51.232;6.826;2023-02-12T17:11:13;10.10;99.90
37050;DHT22;22958;51.232;6.826;2023-02-12T17:13:45;10.10;99.90
37050;DHT22;22958;51.232;6.826;2023-02-12T17:16:11;10.10;99.90
37050;DHT22;22958;51.232;6.826;2023-02-12T17:18:37;10.00;99.90
37050;DHT22;22958;51.232;6.826;2023-02-12T17:21:06;10.00;99.90
37050;DHT22;22958;51.232;6.826;2023-02-12T17:23:33;10.00;99.90
37050;DHT22;22958;51.232;6.826;2023-02-12T17:25:59;10.00;99.90
37050;DHT22;22958;51.232;6.826;2023-02-12T17:28:24;10.00;99.90
37050;DHT22;22958;51.232;6.826;2023-02-12T17:30:51;10.00;99.90
37050;DHT22;22958;51.232;6.826;2023-02-12T17:33:17;10.00;99.90
37050;DHT22;22958;51.232;6.826;2023-02-12T17:35:44;10.00;99.90
37050;DHT22;22958;51.232;6.826;2023-02-12T17:38:09;10.00;99.90
37050;DHT22;22958;51.232;6.826;2023-02-12T17:40:36;10.00;99.90
37050;DHT22;22958;51.232;6.826;2023-02-12T17:43:06;9.90;99.90
37050;DHT22;22958;51.232;6.826;2023-02-12T17:45:31;10.00;99.90
37050;DHT22;22958;51.232;6.826;2023-02-12T17:47:57;10.00;99.90
37050;DHT22;22958;51.232;6.826;2023-02-12T17:50:24;10.00;99.90
37050;DHT22;22958;51.232;6.826;2023-02-12T17:52:50;9.90;99.90
37050;DHT22;22958;51.232;6.826;2023-02-12T17:55:16;9.90;99.90
37050;DHT22;22958;51.232;6.826;2023-02-12T17:57:42;9.90;99.90
37050;DHT22;22958;51.232;6.826;2023-02-12T18:00:10;9.90;99.90
37050;DHT22;22958;51.232;6.826;2023-02-12T18:02:36;10.00;99.90
37050;DHT22;22958;51.232;6.826;2023-02-12T18:05:02;10.00;99.90
37050;DHT22;22958;51.232;6.826;2023-02-12T18:07:28;9.90;99.90
37050;DHT22;22958;51.232;6.826;2023-02-12T18:09:53;9.90;99.90
37050;DHT22;22958;51.232;6.826;2023-02-12T18:12:18;10.00;99.90
37050;DHT22;22958;51.232;6.826;2023-02-12T18:14:44;9.90;99.90
37050;DHT22;22958;51.232;6.826;2023-02-12T18:17:10;9.90;99.90
37050;DHT22;22958;51.232;6.826;2023-02-12T18:19:35;9.90;99.90
37050;DHT22;22958;51.232;6.826;2023-02-12T18:22:01;9.80;99.90